sensor_id;sensor_type;location;lat;lon;timestamp;P1;durP1;ratioP1;P2;durP2;ratioP2
16593;SDS011;8410;52.532;13.336;2022-11-02T00:02:02;10.80;;;9.63;;
16593;SDS011;8410;52.532;13.336;2022-11-02T00:04:31;10.40;;;9.27;;
16593;SDS011;8410;52.532;13.336;2022-11-02T00:06:59;12.57;;;9.87;;
16593;SDS011;8410;52.532;13.336;2022-11-02T00:09:26;10.50;;;9.33;;
16593;SDS011;8410;52.532;13.336;2022-11-02T00:11:54;12.13;;;9.33;;
16593;SDS011;8410;52.532;13.336;2022-11-02T00:14:21;11.90;;;9.77;;
16593;SDS011;8410;52.532;13.336;2022-11-02T00:16:49;10.43;;;9.40;;
16593;SDS011;8410;52.532;13.336;2022-11-02T00:19:16;10.07;;;8.93;;
16593;SDS011;8410;52.532;13.336;2022-11-02T00:21:45;10.53;;;9.43;;
16593;SDS011;8410;52.532;13.336;2022-11-02T00:24:13;11.73;;;9.90;;
16593;SDS011;8410;52.532;13.336;2022-11-02T00:26:41;11.17;;;9.97;;
16593;SDS011;8410;52.532;13.336;2022-11-02T00:29:08;11.67;;;9.63;;
16593;SDS011;8410;52.532;13.336;2022-11-02T00:31:35;12.50;;;9.90;;
16593;SDS011;8410;52.532;13.336;2022-11-02T00:34:03;10.80;;;9.07;;
16593;SDS011;8410;52.532;13.336;2022-11-02T00:36:30;10.70;;;9.60;;
16593;SDS011;8410;52.532;13.336;2022-11-02T00:38:59;10.03;;;9.03;;
16593;SDS011;8410;52.532;13.336;2022-11-02T00:41:26;9.97;;;8.27;;
16593;SDS011;8410;52.532;13.336;2022-11-02T00:43:54;8.90;;;7.93;;
16593;SDS011;8410;52.532;13.336;2022-11-02T00:46:21;9.80;;;8.60;;
16593;SDS011;8410;52.532;13.336;2022-11-02T00:48:49;10.10;;;8.87;;
16593;SDS011;8410;52.532;13.336;2022-11-02T00:51:17;9.30;;;8.13;;
16593;SDS011;8410;52.532;13.336;2022-11-02T00:53:44;12.33;;;8.70;;
16593;SDS011;8410;52.532;13.336;2022-11-02T00:56:13;12.87;;;9.17;;
16593;SDS011;8410;52.532;13.336;2022-11-02T00:58:40;10.10;;;8.03;;
16593;SDS011;8410;52.532;13.336;2022-11-02T01:01:07;10.00;;;9.00;;
16593;SDS011;8410;52.532;13.336;2022-11-02T01:03:35;13.53;;;8.27;;
16593;SDS011;8410;52.532;13.336;2022-11-02T01:06:06;9.00;;;8.10;;
16593;SDS011;8410;52.532;13.336;2022-11-02T01:08:34;10.07;;;8.30;;
16593;SDS011;8410;52.532;13.336;2022-11-02T01:11:09;11.40;;;8.87;;
16593;SDS011;8410;52.532;13.336;2022-11-02T01:13:38;9.00;;;7.90;;
16593;SDS011;8410;52.532;13.336;2022-11-02T01:16:06;9.87;;;7.27;;
16593;SDS011;8410;52.532;13.336;2022-11-02T01:18:35;7.73;;;7.00;;
16593;SDS011;8410;52.532;13.336;2022-11-02T01:21:02;9.03;;;7.80;;
16593;SDS011;8410;52.532;13.336;2022-11-02T01:23:30;8.00;;;7.20;;
16593;SDS011;8410;52.532;13.336;2022-11-02T01:26:01;8.67;;;6.77;;
16593;SDS011;8410;52.532;13.336;2022-11-02T01:28:29;8.13;;;6.33;;
16593;SDS011;8410;52.532;13.336;2022-11-02T01:30:58;9.43;;;6.87;;
16593;SDS011;8410;52.532;13.336;2022-11-02T01:33:26;8.50;;;5.77;;
16593;SDS011;8410;52.532;13.336;2022-11-02T01:35:54;7.60;;;5.73;;
16593;SDS011;8410;52.532;13.336;2022-11-02T01:38:22;9.90;;;6.13;;
16593;SDS011;8410;52.532;13.336;2022-11-02T01:40:50;6.30;;;5.70;;
16593;SDS011;8410;52.532;13.336;2022-11-02T01:43:18;7.27;;;5.33;;
16593;SDS011;8410;52.532;13.336;2022-11-02T01:45:47;6.60;;;5.30;;
16593;SDS011;8410;52.532;13.336;2022-11-02T01:48:19;7.93;;;5.33;;
16593;SDS011;8410;52.532;13.336;2022-11-02T01:50:52;5.87;;;4.73;;
16593;SDS011;8410;52.532;13.336;2022-11-02T01:53:20;6.97;;;5.90;;
16593;SDS011;8410;52.532;13.336;2022-11-02T01:55:47;9.13;;;5.60;;
16593;SDS011;8410;52.532;13.336;2022-11-02T01:58:17;5.53;;;4.97;;
16593;SDS011;8410;52.532;13.336;2022-11-02T02:00:44;7.00;;;5.70;;
16593;SDS011;8410;52.532;13.336;2022-11-02T02:03:12;7.23;;;5.00;;
16593;SDS011;8410;52.532;13.336;2022-11-02T02:05:45;8.33;;;5.00;;
16593;SDS011;8410;52.532;13.336;2022-11-02T02:08:16;6.67;;;5.20;;
16593;SDS011;8410;52.532;13.336;2022-11-02T02:10:45;6.27;;;4.90;;
16593;SDS011;8410;52.532;13.336;2022-11-02T02:13:13;8.37;;;4.83;;
16593;SDS011;8410;52.532;13.336;2022-11-02T02:15:46;6.70;;;4.67;;
16593;SDS011;8410;52.532;13.336;2022-11-02T02:18:22;7.07;;;4.77;;
16593;SDS011;8410;52.532;13.336;2022-11-02T02:27:11;6.57;;;4.30;;
16593;SDS011;8410;52.532;13.336;2022-11-02T02:29:46;6.53;;;4.20;;
16593;SDS011;8410;52.532;13.336;2022-11-02T02:32:19;6.00;;;4.13;;
16593;SDS011;8410;52.532;13.336;2022-11-02T02:34:55;8.60;;;4.50;;
16593;SDS011;8410;52.532;13.336;2022-11-02T02:37:26;5.83;;;4.30;;
16593;SDS011;8410;52.532;13.336;2022-11-02T02:40:03;6.93;;;4.20;;
16593;SDS011;8410;52.532;13.336;2022-11-02T02:42:35;7.37;;;4.40;;
16593;SDS011;8410;52.532;13.336;2022-11-02T02:45:10;8.73;;;4.17;;
16593;SDS011;8410;52.532;13.336;2022-11-02T02:47:43;6.53;;;3.60;;
16593;SDS011;8410;52.532;13.336;2022-11-02T02:50:15;7.97;;;4.43;;
16593;SDS011;8410;52.532;13.336;2022-11-02T02:52:47;7.27;;;3.60;;
16593;SDS011;8410;52.532;13.336;2022-11-02T02:55:19;5.67;;;3.60;;
16593;SDS011;8410;52.532;13.336;2022-11-02T02:57:51;7.47;;;3.50;;
16593;SDS011;8410;52.532;13.336;2022-11-02T03:00:21;5.13;;;3.20;;
16593;SDS011;8410;52.532;13.336;2022-11-02T03:02:49;6.57;;;3.67;;
16593;SDS011;8410;52.532;13.336;2022-11-02T03:05:28;4.30;;;3.20;;
16593;SDS011;8410;52.532;13.336;2022-11-02T03:07:59;5.60;;;3.40;;
16593;SDS011;8410;52.532;13.336;2022-11-02T03:10:33;9.23;;;3.63;;
16593;SDS011;8410;52.532;13.336;2022-11-02T03:13:09;6.03;;;3.30;;
16593;SDS011;8410;52.532;13.336;2022-11-02T03:15:44;6.33;;;3.60;;
16593;SDS011;8410;52.532;13.336;2022-11-02T03:18:21;5.17;;;3.10;;
16593;SDS011;8410;52.532;13.336;2022-11-02T03:20:56;4.83;;;2.90;;
16593;SDS011;8410;52.532;13.336;2022-11-02T03:23:30;6.30;;;3.33;;
16593;SDS011;8410;52.532;13.336;2022-11-02T03:26:02;5.03;;;2.80;;
16593;SDS011;8410;52.532;13.336;2022-11-02T03:28:38;5.63;;;2.83;;
16593;SDS011;8410;52.532;13.336;2022-11-02T03:31:16;3.63;;;2.60;;
16593;SDS011;8410;52.532;13.336;2022-11-02T03:33:53;5.50;;;3.23;;
16593;SDS011;8410;52.532;13.336;2022-11-02T03:36:26;6.43;;;2.87;;
16593;SDS011;8410;52.532;13.336;2022-11-02T03:38:59;3.93;;;3.07;;
16593;SDS011;8410;52.532;13.336;2022-11-02T03:41:32;5.63;;;2.80;;
16593;SDS011;8410;52.532;13.336;2022-11-02T03:44:03;8.33;;;3.37;;
16593;SDS011;8410;52.532;13.336;2022-11-02T03:46:35;6.03;;;3.50;;
16593;SDS011;8410;52.532;13.336;2022-11-02T03:49:05;5.63;;;2.90;;
16593;SDS011;8410;52.532;13.336;2022-11-02T03:51:37;6.37;;;2.70;;
16593;SDS011;8410;52.532;13.336;2022-11-02T03:54:07;5.93;;;2.73;;
16593;SDS011;8410;52.532;13.336;2022-11-02T03:56:40;6.30;;;3.77;;
16593;SDS011;8410;52.532;13.336;2022-11-02T03:59:12;6.50;;;3.10;;
16593;SDS011;8410;52.532;13.336;2022-11-02T04:01:42;7.30;;;2.80;;
16593;SDS011;8410;52.532;13.336;2022-11-02T04:04:11;6.50;;;3.10;;
16593;SDS011;8410;52.532;13.336;2022-11-02T04:06:38;5.00;;;2.53;;
16593;SDS011;8410;52.532;13.336;2022-11-02T04:09:07;6.43;;;3.00;;
16593;SDS011;8410;52.532;13.336;2022-11-02T04:11:35;4.10;;;2.50;;
16593;SDS011;8410;52.532;13.336;2022-11-02T04:14:21;4.13;;;2.30;;
16593;SDS011;8410;52.532;13.336;2022-11-02T04:17:05;5.47;;;2.80;;
16593;SDS011;8410;52.532;13.336;2022-11-02T04:19:51;9.23;;;3.40;;
16593;SDS011;8410;52.532;13.336;2022-11-02T04:22:19;9.27;;;2.73;;
16593;SDS011;8410;52.532;13.336;2022-11-02T04:25:04;5.03;;;2.90;;
16593;SDS011;8410;52.532;13.336;2022-11-02T04:27:45;8.77;;;3.20;;
16593;SDS011;8410;52.532;13.336;2022-11-02T04:30:14;6.97;;;3.47;;
16593;SDS011;8410;52.532;13.336;2022-11-02T04:32:46;6.60;;;3.33;;
16593;SDS011;8410;52.532;13.336;2022-11-02T04:35:32;7.27;;;2.97;;
16593;SDS011;8410;52.532;13.336;2022-11-02T04:38:01;8.70;;;3.20;;
16593;SDS011;8410;52.532;13.336;2022-11-02T04:40:46;7.00;;;3.10;;
16593;SDS011;8410;52.532;13.336;2022-11-02T04:43:14;7.20;;;3.23;;
16593;SDS011;8410;52.532;13.336;2022-11-02T04:45:41;7.37;;;3.60;;
16593;SDS011;8410;52.532;13.336;2022-11-02T04:48:10;7.40;;;3.10;;
16593;SDS011;8410;52.532;13.336;2022-11-02T04:50:37;8.47;;;3.43;;
16593;SDS011;8410;52.532;13.336;2022-11-02T04:53:05;4.37;;;3.50;;
16593;SDS011;8410;52.532;13.336;2022-11-02T04:55:33;8.33;;;3.10;;
16593;SDS011;8410;52.532;13.336;2022-11-02T04:58:01;7.20;;;3.20;;
16593;SDS011;8410;52.532;13.336;2022-11-02T05:00:29;8.13;;;3.30;;
16593;SDS011;8410;52.532;13.336;2022-11-02T05:02:56;7.73;;;3.37;;
16593;SDS011;8410;52.532;13.336;2022-11-02T05:05:25;10.03;;;3.20;;
16593;SDS011;8410;52.532;13.336;2022-11-02T05:07:52;7.93;;;2.93;;
16593;SDS011;8410;52.532;13.336;2022-11-02T05:10:20;6.20;;;3.47;;
16593;SDS011;8410;52.532;13.336;2022-11-02T05:12:47;8.73;;;3.10;;
16593;SDS011;8410;52.532;13.336;2022-11-02T05:15:15;9.97;;;4.70;;
16593;SDS011;8410;52.532;13.336;2022-11-02T05:17:42;4.57;;;3.37;;
16593;SDS011;8410;52.532;13.336;2022-11-02T05:20:13;8.80;;;3.10;;
16593;SDS011;8410;52.532;13.336;2022-11-02T05:22:42;7.57;;;3.13;;
16593;SDS011;8410;52.532;13.336;2022-11-02T05:25:10;7.23;;;2.70;;
16593;SDS011;8410;52.532;13.336;2022-11-02T05:27:38;9.90;;;3.13;;
16593;SDS011;8410;52.532;13.336;2022-11-02T05:30:06;12.33;;;3.23;;
16593;SDS011;8410;52.532;13.336;2022-11-02T05:32:34;7.57;;;2.73;;
16593;SDS011;8410;52.532;13.336;2022-11-02T05:35:01;7.63;;;3.07;;
16593;SDS011;8410;52.532;13.336;2022-11-02T05:37:29;6.00;;;2.67;;
16593;SDS011;8410;52.532;13.336;2022-11-02T05:39:58;8.17;;;3.70;;
16593;SDS011;8410;52.532;13.336;2022-11-02T05:42:25;7.50;;;3.30;;
16593;SDS011;8410;52.532;13.336;2022-11-02T05:44:53;8.57;;;3.80;;
16593;SDS011;8410;52.532;13.336;2022-11-02T05:47:20;8.57;;;2.93;;
16593;SDS011;8410;52.532;13.336;2022-11-02T05:49:48;7.83;;;3.20;;
16593;SDS011;8410;52.532;13.336;2022-11-02T05:52:15;8.87;;;2.87;;
16593;SDS011;8410;52.532;13.336;2022-11-02T05:54:43;8.47;;;3.10;;
16593;SDS011;8410;52.532;13.336;2022-11-02T05:57:11;5.90;;;2.70;;
16593;SDS011;8410;52.532;13.336;2022-11-02T05:59:39;8.53;;;3.17;;
16593;SDS011;8410;52.532;13.336;2022-11-02T06:02:11;10.43;;;3.00;;
16593;SDS011;8410;52.532;13.336;2022-11-02T06:04:39;9.87;;;3.13;;
16593;SDS011;8410;52.532;13.336;2022-11-02T06:07:06;5.73;;;3.20;;
16593;SDS011;8410;52.532;13.336;2022-11-02T06:09:34;11.90;;;3.13;;
16593;SDS011;8410;52.532;13.336;2022-11-02T06:12:01;9.37;;;3.10;;
16593;SDS011;8410;52.532;13.336;2022-11-02T06:14:30;8.37;;;2.90;;
16593;SDS011;8410;52.532;13.336;2022-11-02T06:16:58;7.00;;;3.33;;
16593;SDS011;8410;52.532;13.336;2022-11-02T06:19:25;7.67;;;2.53;;
16593;SDS011;8410;52.532;13.336;2022-11-02T06:21:52;6.97;;;2.57;;
16593;SDS011;8410;52.532;13.336;2022-11-02T06:24:20;14.13;;;3.10;;
16593;SDS011;8410;52.532;13.336;2022-11-02T06:26:47;7.53;;;3.20;;
16593;SDS011;8410;52.532;13.336;2022-11-02T06:29:14;12.03;;;2.80;;
16593;SDS011;8410;52.532;13.336;2022-11-02T06:31:43;6.47;;;2.73;;
16593;SDS011;8410;52.532;13.336;2022-11-02T06:34:11;10.53;;;3.00;;
16593;SDS011;8410;52.532;13.336;2022-11-02T06:36:38;7.70;;;2.40;;
16593;SDS011;8410;52.532;13.336;2022-11-02T06:39:05;6.63;;;2.40;;
16593;SDS011;8410;52.532;13.336;2022-11-02T06:41:33;8.17;;;2.60;;
16593;SDS011;8410;52.532;13.336;2022-11-02T06:44:00;10.77;;;2.60;;
16593;SDS011;8410;52.532;13.336;2022-11-02T06:46:28;8.27;;;2.80;;
16593;SDS011;8410;52.532;13.336;2022-11-02T06:48:56;13.13;;;3.10;;
16593;SDS011;8410;52.532;13.336;2022-11-02T06:51:24;10.73;;;2.70;;
16593;SDS011;8410;52.532;13.336;2022-11-02T06:53:52;8.53;;;2.50;;
16593;SDS011;8410;52.532;13.336;2022-11-02T06:56:19;10.83;;;4.10;;
16593;SDS011;8410;52.532;13.336;2022-11-02T06:58:47;7.17;;;2.47;;
16593;SDS011;8410;52.532;13.336;2022-11-02T07:01:14;6.53;;;2.73;;
16593;SDS011;8410;52.532;13.336;2022-11-02T07:03:42;6.30;;;2.77;;
16593;SDS011;8410;52.532;13.336;2022-11-02T07:06:10;6.63;;;3.17;;
16593;SDS011;8410;52.532;13.336;2022-11-02T07:08:39;9.93;;;2.60;;
16593;SDS011;8410;52.532;13.336;2022-11-02T07:11:07;7.63;;;2.90;;
16593;SDS011;8410;52.532;13.336;2022-11-02T07:13:39;17.37;;;3.80;;
16593;SDS011;8410;52.532;13.336;2022-11-02T07:16:06;5.57;;;2.23;;
16593;SDS011;8410;52.532;13.336;2022-11-02T07:18:34;12.53;;;3.40;;
16593;SDS011;8410;52.532;13.336;2022-11-02T07:21:01;11.03;;;2.87;;
16593;SDS011;8410;52.532;13.336;2022-11-02T07:23:30;5.40;;;2.93;;
16593;SDS011;8410;52.532;13.336;2022-11-02T07:25:59;11.27;;;3.30;;
16593;SDS011;8410;52.532;13.336;2022-11-02T07:28:27;5.90;;;2.10;;
16593;SDS011;8410;52.532;13.336;2022-11-02T07:30:54;11.67;;;3.07;;
16593;SDS011;8410;52.532;13.336;2022-11-02T07:33:22;7.27;;;2.50;;
16593;SDS011;8410;52.532;13.336;2022-11-02T07:35:49;7.30;;;2.50;;
16593;SDS011;8410;52.532;13.336;2022-11-02T07:38:17;7.73;;;2.53;;
16593;SDS011;8410;52.532;13.336;2022-11-02T07:40:46;11.50;;;3.20;;
16593;SDS011;8410;52.532;13.336;2022-11-02T07:43:15;11.80;;;3.10;;
16593;SDS011;8410;52.532;13.336;2022-11-02T07:45:42;10.63;;;3.87;;
16593;SDS011;8410;52.532;13.336;2022-11-02T07:48:10;8.73;;;3.10;;
16593;SDS011;8410;52.532;13.336;2022-11-02T07:50:37;7.77;;;2.73;;
16593;SDS011;8410;52.532;13.336;2022-11-02T07:53:04;9.00;;;3.03;;
16593;SDS011;8410;52.532;13.336;2022-11-02T07:55:32;8.00;;;2.70;;
16593;SDS011;8410;52.532;13.336;2022-11-02T07:58:02;10.23;;;3.27;;
16593;SDS011;8410;52.532;13.336;2022-11-02T08:00:31;12.53;;;3.10;;
16593;SDS011;8410;52.532;13.336;2022-11-02T08:03:00;8.67;;;2.87;;
16593;SDS011;8410;52.532;13.336;2022-11-02T08:05:30;9.87;;;2.57;;
16593;SDS011;8410;52.532;13.336;2022-11-02T08:08:01;6.70;;;2.60;;
16593;SDS011;8410;52.532;13.336;2022-11-02T08:10:32;7.10;;;2.73;;
16593;SDS011;8410;52.532;13.336;2022-11-02T08:13:06;5.60;;;2.50;;
16593;SDS011;8410;52.532;13.336;2022-11-02T08:15:34;9.87;;;2.73;;
16593;SDS011;8410;52.532;13.336;2022-11-02T08:18:02;6.77;;;2.60;;
16593;SDS011;8410;52.532;13.336;2022-11-02T08:20:32;10.00;;;3.00;;
16593;SDS011;8410;52.532;13.336;2022-11-02T08:23:01;11.83;;;2.30;;
16593;SDS011;8410;52.532;13.336;2022-11-02T08:25:29;7.03;;;2.67;;
16593;SDS011;8410;52.532;13.336;2022-11-02T08:27:57;5.00;;;2.10;;
16593;SDS011;8410;52.532;13.336;2022-11-02T08:30:28;8.57;;;2.47;;
16593;SDS011;8410;52.532;13.336;2022-11-02T08:33:00;5.97;;;2.70;;
16593;SDS011;8410;52.532;13.336;2022-11-02T08:35:28;5.27;;;2.43;;
16593;SDS011;8410;52.532;13.336;2022-11-02T08:37:56;7.17;;;2.80;;
16593;SDS011;8410;52.532;13.336;2022-11-02T08:40:25;5.40;;;2.50;;
16593;SDS011;8410;52.532;13.336;2022-11-02T08:42:56;6.93;;;2.50;;
16593;SDS011;8410;52.532;13.336;2022-11-02T08:45:24;10.47;;;3.23;;
16593;SDS011;8410;52.532;13.336;2022-11-02T08:47:53;8.00;;;2.80;;
16593;SDS011;8410;52.532;13.336;2022-11-02T08:50:21;8.33;;;2.50;;
16593;SDS011;8410;52.532;13.336;2022-11-02T08:52:49;7.37;;;3.60;;
16593;SDS011;8410;52.532;13.336;2022-11-02T08:55:17;7.50;;;2.63;;
16593;SDS011;8410;52.532;13.336;2022-11-02T08:57:44;12.50;;;3.10;;
16593;SDS011;8410;52.532;13.336;2022-11-02T09:00:12;11.90;;;3.13;;
16593;SDS011;8410;52.532;13.336;2022-11-02T09:02:41;6.20;;;2.47;;
16593;SDS011;8410;52.532;13.336;2022-11-02T09:05:10;10.10;;;3.27;;
16593;SDS011;8410;52.532;13.336;2022-11-02T09:07:38;14.87;;;3.77;;
16593;SDS011;8410;52.532;13.336;2022-11-02T09:10:05;13.37;;;2.87;;
16593;SDS011;8410;52.532;13.336;2022-11-02T09:12:33;12.17;;;4.60;;
16593;SDS011;8410;52.532;13.336;2022-11-02T09:15:01;14.13;;;5.90;;
16593;SDS011;8410;52.532;13.336;2022-11-02T09:17:28;10.70;;;3.00;;
16593;SDS011;8410;52.532;13.336;2022-11-02T09:19:56;6.77;;;2.90;;
16593;SDS011;8410;52.532;13.336;2022-11-02T09:22:24;11.37;;;3.30;;
16593;SDS011;8410;52.532;13.336;2022-11-02T09:24:52;8.20;;;2.47;;
16593;SDS011;8410;52.532;13.336;2022-11-02T09:27:19;9.87;;;2.80;;
16593;SDS011;8410;52.532;13.336;2022-11-02T09:29:46;13.53;;;3.20;;
16593;SDS011;8410;52.532;13.336;2022-11-02T09:32:14;10.57;;;3.63;;
16593;SDS011;8410;52.532;13.336;2022-11-02T09:34:41;9.33;;;3.30;;
16593;SDS011;8410;52.532;13.336;2022-11-02T09:37:09;7.70;;;2.50;;
16593;SDS011;8410;52.532;13.336;2022-11-02T09:39:38;10.30;;;2.50;;
16593;SDS011;8410;52.532;13.336;2022-11-02T09:42:06;10.50;;;2.53;;
16593;SDS011;8410;52.532;13.336;2022-11-02T09:44:43;8.23;;;2.47;;
16593;SDS011;8410;52.532;13.336;2022-11-02T09:47:15;9.83;;;2.27;;
16593;SDS011;8410;52.532;13.336;2022-11-02T09:50:04;12.10;;;3.10;;
16593;SDS011;8410;52.532;13.336;2022-11-02T09:52:33;6.77;;;2.37;;
16593;SDS011;8410;52.532;13.336;2022-11-02T09:55:06;6.13;;;2.43;;
16593;SDS011;8410;52.532;13.336;2022-11-02T09:57:41;8.83;;;2.70;;
16593;SDS011;8410;52.532;13.336;2022-11-02T10:00:12;7.43;;;2.20;;
16593;SDS011;8410;52.532;13.336;2022-11-02T10:02:43;6.90;;;2.37;;
16593;SDS011;8410;52.532;13.336;2022-11-02T10:05:23;10.27;;;3.20;;
16593;SDS011;8410;52.532;13.336;2022-11-02T10:08:09;7.37;;;2.20;;
16593;SDS011;8410;52.532;13.336;2022-11-02T10:10:52;7.93;;;2.60;;
16593;SDS011;8410;52.532;13.336;2022-11-02T10:13:35;8.47;;;2.73;;
16593;SDS011;8410;52.532;13.336;2022-11-02T10:16:07;8.47;;;2.30;;
16593;SDS011;8410;52.532;13.336;2022-11-02T10:18:41;9.30;;;3.43;;
16593;SDS011;8410;52.532;13.336;2022-11-02T10:21:11;8.07;;;2.37;;
16593;SDS011;8410;52.532;13.336;2022-11-02T10:23:44;7.90;;;2.47;;
16593;SDS011;8410;52.532;13.336;2022-11-02T10:26:18;10.07;;;2.87;;
16593;SDS011;8410;52.532;13.336;2022-11-02T10:28:49;9.30;;;2.67;;
16593;SDS011;8410;52.532;13.336;2022-11-02T10:31:24;10.57;;;2.40;;
16593;SDS011;8410;52.532;13.336;2022-11-02T10:33:55;8.80;;;2.37;;
16593;SDS011;8410;52.532;13.336;2022-11-02T10:36:29;9.53;;;2.60;;
16593;SDS011;8410;52.532;13.336;2022-11-02T10:39:08;10.30;;;2.40;;
16593;SDS011;8410;52.532;13.336;2022-11-02T10:42:03;10.23;;;2.57;;
16593;SDS011;8410;52.532;13.336;2022-11-02T10:44:48;9.50;;;3.50;;
16593;SDS011;8410;52.532;13.336;2022-11-02T10:47:28;11.33;;;2.70;;
16593;SDS011;8410;52.532;13.336;2022-11-02T10:50:03;27.77;;;13.80;;
16593;SDS011;8410;52.532;13.336;2022-11-02T10:52:40;44.03;;;25.90;;
16593;SDS011;8410;52.532;13.336;2022-11-02T10:55:12;15.33;;;6.67;;
16593;SDS011;8410;52.532;13.336;2022-11-02T10:57:48;14.03;;;8.60;;
16593;SDS011;8410;52.532;13.336;2022-11-02T11:00:22;17.93;;;10.97;;
16593;SDS011;8410;52.532;13.336;2022-11-02T11:03:01;44.13;;;28.97;;
16593;SDS011;8410;52.532;13.336;2022-11-02T11:05:35;46.63;;;31.63;;
16593;SDS011;8410;52.532;13.336;2022-11-02T11:08:19;27.13;;;17.13;;
16593;SDS011;8410;52.532;13.336;2022-11-02T11:11:07;37.63;;;24.70;;
16593;SDS011;8410;52.532;13.336;2022-11-02T11:13:42;8.80;;;2.90;;
16593;SDS011;8410;52.532;13.336;2022-11-02T11:16:34;31.70;;;20.47;;
16593;SDS011;8410;52.532;13.336;2022-11-02T11:19:04;25.53;;;15.77;;
16593;SDS011;8410;52.532;13.336;2022-11-02T11:22:00;11.97;;;5.23;;
16593;SDS011;8410;52.532;13.336;2022-11-02T11:24:29;11.77;;;3.60;;
16593;SDS011;8410;52.532;13.336;2022-11-02T11:26:59;15.57;;;2.43;;
16593;SDS011;8410;52.532;13.336;2022-11-02T11:29:30;8.87;;;3.60;;
16593;SDS011;8410;52.532;13.336;2022-11-02T11:31:59;17.83;;;9.00;;
16593;SDS011;8410;52.532;13.336;2022-11-02T11:34:29;17.30;;;10.07;;
16593;SDS011;8410;52.532;13.336;2022-11-02T11:37:05;10.23;;;2.63;;
16593;SDS011;8410;52.532;13.336;2022-11-02T11:39:36;8.90;;;2.23;;
16593;SDS011;8410;52.532;13.336;2022-11-02T11:42:12;8.33;;;2.53;;
16593;SDS011;8410;52.532;13.336;2022-11-02T11:44:45;9.10;;;2.17;;
16593;SDS011;8410;52.532;13.336;2022-11-02T11:47:22;9.63;;;2.17;;
16593;SDS011;8410;52.532;13.336;2022-11-02T11:49:52;6.50;;;2.13;;
16593;SDS011;8410;52.532;13.336;2022-11-02T11:52:41;8.80;;;2.27;;
16593;SDS011;8410;52.532;13.336;2022-11-02T11:55:19;7.70;;;2.60;;
16593;SDS011;8410;52.532;13.336;2022-11-02T11:58:05;8.23;;;2.57;;
16593;SDS011;8410;52.532;13.336;2022-11-02T12:00:40;7.13;;;2.17;;
16593;SDS011;8410;52.532;13.336;2022-11-02T12:03:08;6.33;;;2.03;;
16593;SDS011;8410;52.532;13.336;2022-11-02T12:05:40;6.87;;;2.23;;
16593;SDS011;8410;52.532;13.336;2022-11-02T12:08:17;6.23;;;2.03;;
16593;SDS011;8410;52.532;13.336;2022-11-02T12:11:01;7.40;;;2.90;;
16593;SDS011;8410;52.532;13.336;2022-11-02T12:13:55;7.97;;;2.47;;
16593;SDS011;8410;52.532;13.336;2022-11-02T12:16:37;9.53;;;3.23;;
16593;SDS011;8410;52.532;13.336;2022-11-02T12:19:20;9.27;;;2.87;;
16593;SDS011;8410;52.532;13.336;2022-11-02T12:22:00;6.53;;;2.07;;
16593;SDS011;8410;52.532;13.336;2022-11-02T12:24:38;8.20;;;2.63;;
16593;SDS011;8410;52.532;13.336;2022-11-02T12:27:19;8.60;;;2.13;;
16593;SDS011;8410;52.532;13.336;2022-11-02T12:32:49;8.03;;;2.43;;
16593;SDS011;8410;52.532;13.336;2022-11-02T12:35:48;7.00;;;2.67;;
16593;SDS011;8410;52.532;13.336;2022-11-02T12:38:39;6.97;;;2.17;;
16593;SDS011;8410;52.532;13.336;2022-11-02T12:41:21;8.03;;;1.90;;
16593;SDS011;8410;52.532;13.336;2022-11-02T12:44:04;6.77;;;2.40;;
16593;SDS011;8410;52.532;13.336;2022-11-02T12:46:41;9.27;;;5.03;;
16593;SDS011;8410;52.532;13.336;2022-11-02T12:49:23;5.83;;;1.60;;
16593;SDS011;8410;52.532;13.336;2022-11-02T12:52:03;3.60;;;1.60;;
16593;SDS011;8410;52.532;13.336;2022-11-02T12:54:43;5.67;;;1.90;;
16593;SDS011;8410;52.532;13.336;2022-11-02T12:57:14;4.43;;;1.80;;
16593;SDS011;8410;52.532;13.336;2022-11-02T12:59:44;6.23;;;1.70;;
16593;SDS011;8410;52.532;13.336;2022-11-02T13:02:16;5.73;;;1.70;;
16593;SDS011;8410;52.532;13.336;2022-11-02T13:04:48;7.53;;;2.80;;
16593;SDS011;8410;52.532;13.336;2022-11-02T13:07:20;5.47;;;1.67;;
16593;SDS011;8410;52.532;13.336;2022-11-02T13:09:53;6.80;;;1.90;;
16593;SDS011;8410;52.532;13.336;2022-11-02T13:12:27;8.47;;;2.17;;
16593;SDS011;8410;52.532;13.336;2022-11-02T13:14:58;6.27;;;2.40;;
16593;SDS011;8410;52.532;13.336;2022-11-02T13:17:28;5.20;;;1.90;;
16593;SDS011;8410;52.532;13.336;2022-11-02T13:20:04;6.13;;;3.07;;
16593;SDS011;8410;52.532;13.336;2022-11-02T13:22:41;10.23;;;5.60;;
16593;SDS011;8410;52.532;13.336;2022-11-02T13:25:13;8.97;;;4.40;;
16593;SDS011;8410;52.532;13.336;2022-11-02T13:27:46;7.00;;;2.50;;
16593;SDS011;8410;52.532;13.336;2022-11-02T13:30:17;5.83;;;2.57;;
16593;SDS011;8410;52.532;13.336;2022-11-02T13:32:45;7.73;;;2.40;;
16593;SDS011;8410;52.532;13.336;2022-11-02T13:35:21;7.27;;;3.20;;
16593;SDS011;8410;52.532;13.336;2022-11-02T13:37:54;5.57;;;2.10;;
16593;SDS011;8410;52.532;13.336;2022-11-02T13:40:28;6.93;;;2.80;;
16593;SDS011;8410;52.532;13.336;2022-11-02T13:43:31;5.67;;;2.67;;
16593;SDS011;8410;52.532;13.336;2022-11-02T13:46:22;8.43;;;2.33;;
16593;SDS011;8410;52.532;13.336;2022-11-02T13:49:10;8.17;;;1.70;;
16593;SDS011;8410;52.532;13.336;2022-11-02T13:51:42;4.97;;;2.30;;
16593;SDS011;8410;52.532;13.336;2022-11-02T13:54:13;5.73;;;2.30;;
16593;SDS011;8410;52.532;13.336;2022-11-02T13:56:45;4.27;;;2.10;;
16593;SDS011;8410;52.532;13.336;2022-11-02T13:59:18;8.30;;;2.10;;
16593;SDS011;8410;52.532;13.336;2022-11-02T14:01:48;6.37;;;2.30;;
16593;SDS011;8410;52.532;13.336;2022-11-02T14:04:19;7.97;;;2.23;;
16593;SDS011;8410;52.532;13.336;2022-11-02T14:06:51;5.93;;;2.00;;
16593;SDS011;8410;52.532;13.336;2022-11-02T14:09:32;6.53;;;2.00;;
16593;SDS011;8410;52.532;13.336;2022-11-02T14:12:17;5.10;;;1.80;;
16593;SDS011;8410;52.532;13.336;2022-11-02T14:18:24;6.37;;;2.20;;
16593;SDS011;8410;52.532;13.336;2022-11-02T14:20:57;5.07;;;1.93;;
16593;SDS011;8410;52.532;13.336;2022-11-02T14:23:41;6.90;;;1.87;;
16593;SDS011;8410;52.532;13.336;2022-11-02T14:29:02;6.17;;;1.70;;
16593;SDS011;8410;52.532;13.336;2022-11-02T14:31:52;10.33;;;3.43;;
16593;SDS011;8410;52.532;13.336;2022-11-02T14:34:30;9.53;;;6.30;;
16593;SDS011;8410;52.532;13.336;2022-11-02T14:37:23;7.03;;;2.30;;
16593;SDS011;8410;52.532;13.336;2022-11-02T14:40:06;5.90;;;2.30;;
16593;SDS011;8410;52.532;13.336;2022-11-02T14:42:52;8.83;;;2.93;;
16593;SDS011;8410;52.532;13.336;2022-11-02T14:45:43;5.60;;;2.07;;
16593;SDS011;8410;52.532;13.336;2022-11-02T14:48:23;8.77;;;1.80;;
16593;SDS011;8410;52.532;13.336;2022-11-02T14:50:57;5.97;;;2.10;;
16593;SDS011;8410;52.532;13.336;2022-11-02T14:53:30;4.33;;;1.60;;
16593;SDS011;8410;52.532;13.336;2022-11-02T14:56:00;7.17;;;1.90;;
16593;SDS011;8410;52.532;13.336;2022-11-02T14:58:29;6.10;;;2.00;;
16593;SDS011;8410;52.532;13.336;2022-11-02T15:01:00;7.27;;;1.70;;
16593;SDS011;8410;52.532;13.336;2022-11-02T15:03:33;5.93;;;1.90;;
16593;SDS011;8410;52.532;13.336;2022-11-02T15:06:04;5.50;;;1.97;;
16593;SDS011;8410;52.532;13.336;2022-11-02T15:08:47;6.97;;;1.87;;
16593;SDS011;8410;52.532;13.336;2022-11-02T15:16:58;9.57;;;1.70;;
16593;SDS011;8410;52.532;13.336;2022-11-02T15:19:33;6.17;;;2.67;;
16593;SDS011;8410;52.532;13.336;2022-11-02T15:25:03;6.57;;;1.77;;
16593;SDS011;8410;52.532;13.336;2022-11-02T15:27:39;4.93;;;1.70;;
16593;SDS011;8410;52.532;13.336;2022-11-02T15:30:11;5.30;;;1.83;;
16593;SDS011;8410;52.532;13.336;2022-11-02T15:32:41;6.43;;;1.87;;
16593;SDS011;8410;52.532;13.336;2022-11-02T15:35:15;5.90;;;1.87;;
16593;SDS011;8410;52.532;13.336;2022-11-02T15:37:46;4.50;;;1.80;;